createdAt,value
2019-05-01T00:01:50.241Z,10.00
2019-05-01T00:04:35.803Z,10.27
2019-05-01T00:07:10.154Z,8.47
2019-05-01T00:09:39.598Z,9.53
2019-05-01T00:12:09.014Z,8.83
2019-05-01T00:14:38.371Z,13.13
2019-05-01T00:17:07.884Z,16.60
2019-05-01T00:19:37.232Z,10.90
2019-05-01T00:22:06.626Z,11.00
2019-05-01T00:24:36.176Z,16.00
2019-05-01T00:27:05.590Z,14.63
2019-05-01T00:29:34.958Z,15.47
2019-05-01T00:32:04.367Z,13.90
2019-05-01T00:34:33.826Z,15.77
2019-05-01T00:37:03.255Z,16.60
2019-05-01T00:39:32.658Z,20.03
2019-05-01T00:42:02.010Z,15.27
2019-05-01T00:44:31.413Z,14.23
2019-05-01T00:47:00.822Z,14.77
2019-05-01T00:49:30.270Z,18.03
2019-05-01T00:51:59.736Z,13.00
2019-05-01T00:54:30.587Z,13.03
2019-05-01T00:57:09.987Z,13.13
2019-05-01T00:59:48.705Z,16.37
2019-05-01T01:02:33.365Z,14.13
2019-05-01T01:05:02.733Z,13.30
2019-05-01T01:07:32.305Z,16.27
2019-05-01T01:10:01.728Z,16.50
2019-05-01T01:12:31.113Z,16.10
2019-05-01T01:15:00.587Z,17.70
2019-05-01T01:17:29.948Z,19.97
2019-05-01T01:19:59.398Z,16.70
2019-05-01T01:22:28.771Z,18.03
2019-05-01T01:24:58.238Z,18.30
2019-05-01T01:27:27.695Z,22.37
2019-05-01T01:29:57.305Z,17.53
2019-05-01T01:32:26.727Z,17.83
2019-05-01T01:34:56.157Z,17.87
2019-05-01T01:37:25.626Z,18.00
2019-05-01T01:39:55.057Z,19.77
2019-05-01T01:42:24.620Z,25.77
2019-05-01T01:45:21.940Z,23.77
2019-05-01T01:48:11.040Z,23.40
2019-05-01T01:50:40.777Z,22.43
2019-05-01T01:53:10.352Z,24.57
2019-05-01T01:55:39.824Z,25.37
2019-05-01T01:58:09.190Z,25.10
2019-05-01T02:01:09.621Z,28.97
2019-05-01T02:03:38.000Z,26.97
2019-05-01T02:06:07.440Z,31.63
2019-05-01T02:08:36.902Z,26.90
2019-05-01T02:11:06.321Z,26.20
2019-05-01T02:13:35.778Z,26.60
2019-05-01T02:16:05.193Z,27.73
2019-05-01T02:18:34.598Z,31.60
2019-05-01T02:21:04.173Z,30.63
2019-05-01T02:23:33.569Z,28.87
2019-05-01T02:26:03.004Z,26.70
2019-05-01T02:28:50.916Z,30.17
2019-05-01T02:31:29.484Z,30.37
2019-05-01T02:33:59.105Z,31.50
2019-05-01T02:36:29.002Z,30.43
2019-05-01T02:38:58.805Z,31.17
2019-05-01T02:41:32.394Z,30.60
2019-05-01T02:44:03.506Z,31.40
2019-05-01T02:46:33.003Z,35.77
2019-05-01T02:49:06.673Z,32.87
2019-05-01T02:51:36.084Z,31.10
2019-05-01T02:54:05.447Z,33.03
2019-05-01T02:56:58.261Z,31.00
2019-05-01T02:59:27.727Z,31.63
2019-05-01T03:01:57.147Z,33.93
2019-05-01T03:04:26.544Z,32.83
2019-05-01T03:06:56.012Z,31.93
2019-05-01T03:09:25.402Z,35.13
2019-05-01T03:11:54.811Z,35.63
2019-05-01T03:14:24.185Z,36.47
2019-05-01T03:16:53.635Z,36.37
2019-05-01T03:19:41.895Z,38.67
2019-05-01T03:22:30.222Z,38.60
2019-05-01T03:24:59.845Z,38.50
2019-05-01T03:27:29.279Z,36.27
2019-05-01T03:29:58.667Z,36.47
2019-05-01T03:32:28.111Z,39.40
2019-05-01T03:34:57.611Z,37.10
2019-05-01T03:37:27.407Z,37.33
2019-05-01T03:39:57.032Z,35.67
2019-05-01T03:42:26.853Z,37.30
2019-05-01T03:44:56.590Z,35.80
2019-05-01T03:47:26.229Z,36.00
2019-05-01T03:49:56.032Z,41.33
2019-05-01T03:52:25.869Z,39.10
2019-05-01T03:54:55.530Z,36.60
2019-05-01T03:57:25.167Z,40.60
2019-05-01T03:59:54.954Z,38.87
2019-05-01T04:02:38.054Z,35.30
2019-05-01T04:05:07.563Z,39.17
2019-05-01T04:07:37.231Z,37.20
2019-05-01T04:10:07.555Z,36.23
2019-05-01T04:12:37.270Z,40.93
2019-05-01T04:15:07.082Z,33.93
2019-05-01T04:17:45.431Z,32.60
2019-05-01T04:20:15.148Z,34.90
2019-05-01T04:22:44.955Z,35.93
2019-05-01T04:25:14.590Z,35.30
2019-05-01T04:27:46.942Z,36.90
2019-05-01T04:30:23.447Z,33.07
2019-05-01T04:32:54.949Z,37.00
2019-05-01T04:35:29.046Z,38.73
2019-05-01T04:37:59.785Z,39.47
2019-05-01T04:40:29.387Z,41.00
2019-05-01T04:42:59.093Z,34.80
2019-05-01T04:45:29.178Z,41.00
2019-05-01T04:47:58.908Z,36.77
2019-05-01T04:50:28.688Z,33.20
2019-05-01T04:52:58.446Z,37.30
2019-05-01T04:55:28.106Z,36.53
2019-05-01T04:57:57.751Z,35.73
2019-05-01T05:00:27.495Z,38.33
2019-05-01T05:03:05.384Z,36.17
2019-05-01T05:05:35.098Z,36.73
2019-05-01T05:08:04.885Z,34.00
2019-05-01T05:10:34.533Z,37.20
2019-05-01T05:13:13.750Z,35.50
2019-05-01T05:16:05.065Z,35.97
2019-05-01T05:18:34.880Z,35.57
2019-05-01T05:21:04.630Z,35.43
2019-05-01T05:23:34.275Z,33.60
2019-05-01T05:26:04.052Z,35.93
2019-05-01T05:28:33.811Z,34.60
2019-05-01T05:31:03.486Z,33.73
2019-05-01T05:33:35.011Z,36.03
2019-05-01T05:36:05.355Z,35.67
2019-05-01T05:39:03.081Z,34.23
2019-05-01T05:41:32.939Z,34.00
2019-05-01T05:44:02.813Z,31.90
2019-05-01T05:46:32.462Z,35.10
2019-05-01T05:49:02.321Z,37.27
2019-05-01T05:51:52.988Z,33.83
2019-05-01T05:54:48.953Z,34.47
2019-05-01T05:57:33.521Z,36.60
2019-05-01T06:00:14.175Z,35.47
2019-05-01T06:02:56.778Z,35.67
2019-05-01T06:05:37.710Z,37.40
2019-05-01T06:08:12.900Z,35.30
2019-05-01T06:10:58.642Z,35.43
2019-05-01T06:13:44.169Z,39.60
2019-05-01T06:16:32.719Z,36.33
2019-05-01T06:19:24.349Z,34.67
2019-05-01T06:22:16.787Z,37.77
2019-05-01T06:24:49.569Z,32.33
2019-05-01T06:27:19.215Z,34.20
2019-05-01T06:29:48.956Z,38.87
2019-05-01T06:32:18.633Z,38.90
2019-05-01T06:34:48.272Z,36.20
2019-05-01T06:37:20.844Z,40.60
2019-05-01T06:39:49.842Z,34.77
2019-05-01T06:42:20.500Z,37.27
2019-05-01T06:44:55.238Z,34.43
2019-05-01T06:47:33.345Z,35.23
2019-05-01T06:50:10.248Z,33.70
2019-05-01T06:52:40.187Z,35.20
2019-05-01T06:55:09.833Z,39.10
2019-05-01T06:57:43.680Z,37.10
2019-05-01T07:00:15.684Z,38.70
2019-05-01T07:02:45.565Z,39.40
2019-05-01T07:05:16.515Z,35.20
2019-05-01T07:07:48.101Z,37.13
2019-05-01T07:10:29.892Z,36.97
2019-05-01T07:12:49.008Z,34.93
2019-05-01T07:15:22.049Z,35.03
2019-05-01T07:17:49.935Z,35.23
2019-05-01T07:20:51.384Z,35.23
2019-05-01T07:23:19.129Z,39.33
2019-05-01T07:25:48.853Z,34.60
2019-05-01T07:28:18.369Z,35.97
2019-05-01T07:31:06.311Z,34.03
2019-05-01T07:33:35.889Z,36.50
2019-05-01T07:36:06.957Z,35.27
2019-05-01T07:38:38.314Z,34.07
2019-05-01T07:41:08.507Z,34.53
2019-05-01T07:44:12.440Z,34.10
2019-05-01T07:47:10.513Z,32.63
2019-05-01T07:49:54.835Z,34.90
2019-05-01T07:52:24.987Z,35.30
2019-05-01T07:54:55.519Z,33.70
2019-05-01T07:57:25.245Z,34.17
2019-05-01T07:59:58.344Z,34.60
2019-05-01T08:02:31.001Z,34.33
2019-05-01T08:04:57.762Z,36.47
2019-05-01T08:07:27.822Z,36.10
2019-05-01T08:09:58.954Z,33.80
2019-05-01T08:12:28.583Z,33.30
2019-05-01T08:14:58.282Z,33.03
2019-05-01T08:17:29.697Z,31.27
2019-05-01T08:20:20.985Z,29.70
2019-05-01T08:22:50.594Z,33.63
2019-05-01T08:25:20.306Z,28.90
2019-05-01T08:28:08.661Z,32.33
2019-05-01T08:31:05.114Z,28.00
2019-05-01T08:33:57.026Z,29.00
2019-05-01T08:36:26.589Z,27.33
2019-05-01T08:38:56.308Z,28.93
2019-05-01T08:41:27.074Z,27.27
2019-05-01T08:43:57.360Z,26.23
2019-05-01T08:46:50.979Z,25.17
2019-05-01T08:49:42.281Z,24.47
2019-05-01T08:52:12.762Z,24.03
2019-05-01T08:54:40.424Z,25.30
2019-05-01T08:57:10.076Z,25.60
2019-05-01T08:59:39.723Z,27.20
2019-05-01T09:02:09.990Z,25.00
2019-05-01T09:04:39.808Z,24.83
2019-05-01T09:07:09.492Z,27.83
2019-05-01T09:09:39.875Z,27.00
2019-05-01T09:12:11.910Z,24.87
2019-05-01T09:14:41.634Z,25.10
2019-05-01T09:17:11.257Z,25.47
2019-05-01T09:19:40.932Z,26.90
2019-05-01T09:22:10.466Z,26.90
2019-05-01T09:24:40.787Z,28.60
2019-05-01T09:27:31.112Z,26.37
2019-05-01T09:30:04.291Z,24.57
2019-05-01T09:32:33.293Z,27.43
2019-05-01T09:35:15.211Z,26.27
2019-05-01T09:37:34.245Z,24.90
2019-05-01T09:40:08.511Z,24.63
2019-05-01T09:42:35.210Z,24.87
2019-05-01T09:45:04.839Z,22.33
2019-05-01T09:47:34.467Z,25.17
2019-05-01T09:50:04.350Z,25.83
2019-05-01T09:52:47.904Z,23.50
2019-05-01T09:55:36.495Z,24.77
2019-05-01T09:58:06.230Z,24.50
2019-05-01T10:00:35.905Z,23.63
2019-05-01T10:03:05.563Z,22.20
2019-05-01T10:05:37.956Z,20.70
2019-05-01T10:08:06.614Z,20.80
2019-05-01T10:10:37.086Z,20.43
2019-05-01T10:13:06.964Z,19.70
2019-05-01T10:15:36.603Z,18.63
2019-05-01T10:18:06.315Z,20.10
2019-05-01T10:20:36.139Z,17.13
2019-05-01T10:23:07.785Z,13.67
2019-05-01T10:25:42.796Z,14.63
2019-05-01T10:28:17.634Z,11.50
2019-05-01T10:31:11.826Z,12.93
2019-05-01T10:33:43.077Z,12.67
2019-05-01T10:36:26.533Z,10.20
2019-05-01T10:38:56.152Z,10.70
2019-05-01T10:41:25.816Z,14.53
2019-05-01T10:43:55.563Z,13.20
2019-05-01T10:46:25.240Z,14.97
2019-05-01T10:48:57.382Z,12.50
2019-05-01T10:51:26.310Z,13.37
2019-05-01T10:53:55.975Z,13.10
2019-05-01T10:56:25.627Z,13.07
2019-05-01T10:58:55.299Z,13.03
2019-05-01T11:01:32.141Z,12.97
2019-05-01T11:04:01.779Z,11.23
2019-05-01T11:06:31.320Z,11.23
2019-05-01T11:09:00.858Z,11.10
2019-05-01T11:11:30.538Z,9.53
2019-05-01T11:14:00.222Z,9.47
2019-05-01T11:16:29.839Z,9.67
2019-05-01T11:18:59.521Z,10.83
2019-05-01T11:21:29.193Z,9.50
2019-05-01T11:23:58.828Z,9.07
2019-05-01T11:26:28.602Z,8.03
2019-05-01T11:28:58.346Z,9.00
2019-05-01T11:31:35.322Z,8.27
2019-05-01T11:34:23.760Z,8.37
2019-05-01T11:37:27.262Z,8.93
2019-05-01T11:40:03.325Z,9.73
2019-05-01T11:42:32.905Z,10.17
2019-05-01T11:45:02.465Z,8.97
2019-05-01T11:47:32.174Z,9.30
2019-05-01T11:50:01.756Z,9.27
2019-05-01T11:52:31.462Z,10.27
2019-05-01T11:55:00.973Z,9.80
2019-05-01T11:57:30.656Z,9.90
2019-05-01T12:00:00.291Z,8.37
2019-05-01T12:02:29.970Z,9.17
2019-05-01T12:04:59.648Z,8.80
2019-05-01T12:07:29.317Z,9.20
2019-05-01T12:09:58.847Z,9.50
2019-05-01T12:12:30.167Z,7.00
2019-05-01T12:14:59.812Z,7.77
2019-05-01T12:17:34.465Z,8.00
2019-05-01T12:20:04.168Z,6.37
2019-05-01T12:22:33.918Z,7.60
2019-05-01T12:25:03.634Z,9.73
2019-05-01T12:27:33.320Z,7.50
2019-05-01T12:30:02.883Z,8.73
2019-05-01T12:32:32.636Z,8.20
2019-05-01T12:35:02.306Z,8.30
2019-05-01T12:37:36.580Z,8.00
2019-05-01T12:40:06.773Z,7.27
2019-05-01T12:42:36.672Z,7.80
2019-05-01T12:45:07.579Z,6.73
2019-05-01T12:47:49.624Z,6.23
2019-05-01T12:50:19.302Z,5.53
2019-05-01T12:53:20.328Z,6.20
2019-05-01T12:56:15.115Z,6.40
2019-05-01T12:58:45.840Z,6.43
2019-05-01T13:01:15.534Z,6.10
2019-05-01T13:03:45.248Z,6.03
2019-05-01T13:06:14.894Z,6.03
2019-05-01T13:08:44.532Z,7.60
2019-05-01T13:11:14.196Z,7.37
2019-05-01T13:13:43.883Z,7.77
2019-05-01T13:16:13.431Z,6.50
2019-05-01T13:18:43.139Z,6.23
2019-05-01T13:21:12.721Z,6.93
2019-05-01T13:23:42.403Z,7.93
2019-05-01T13:26:35.904Z,10.50
2019-05-01T13:29:30.498Z,6.23
2019-05-01T13:32:27.877Z,7.47
2019-05-01T13:34:57.538Z,6.50
2019-05-01T13:37:27.175Z,5.83
2019-05-01T13:39:56.742Z,5.30
2019-05-01T13:42:26.311Z,6.03
2019-05-01T13:44:56.013Z,6.90
2019-05-01T13:47:25.636Z,8.03
2019-05-01T13:49:55.286Z,6.10
2019-05-01T13:52:24.917Z,7.77
2019-05-01T13:54:54.613Z,4.53
2019-05-01T13:57:24.258Z,5.47
2019-05-01T13:59:53.890Z,8.73
2019-05-01T14:02:23.559Z,5.23
2019-05-01T14:04:53.244Z,6.50
2019-05-01T14:07:22.901Z,4.83
2019-05-01T14:09:52.562Z,5.53
2019-05-01T14:12:22.335Z,8.40
2019-05-01T14:14:51.973Z,5.70
2019-05-01T14:17:21.657Z,6.73
2019-05-01T14:20:00.140Z,6.07
2019-05-01T14:22:52.480Z,6.07
2019-05-01T14:25:22.034Z,6.03
2019-05-01T14:27:51.482Z,5.03
2019-05-01T14:30:21.174Z,7.27
2019-05-01T14:32:51.818Z,5.20
2019-05-01T14:35:21.645Z,6.70
2019-05-01T14:37:51.270Z,4.73
2019-05-01T14:40:20.843Z,4.60
2019-05-01T14:42:50.469Z,5.73
2019-05-01T14:45:20.155Z,5.83
2019-05-01T14:47:49.838Z,6.83
2019-05-01T14:50:19.379Z,5.47
2019-05-01T14:52:49.083Z,5.30
2019-05-01T14:55:18.755Z,6.77
2019-05-01T14:57:48.504Z,6.60
2019-05-01T15:00:18.640Z,6.10
2019-05-01T15:02:48.331Z,5.97
2019-05-01T15:05:18.023Z,6.70
2019-05-01T15:07:47.644Z,6.23
2019-05-01T15:10:17.276Z,7.03
2019-05-01T15:12:48.574Z,6.60
2019-05-01T15:15:29.343Z,8.27
2019-05-01T15:18:03.296Z,6.97
2019-05-01T15:20:32.936Z,7.10
2019-05-01T15:23:02.394Z,6.17
2019-05-01T15:25:32.030Z,6.07
2019-05-01T15:28:01.713Z,6.60
2019-05-01T15:30:31.442Z,7.23
2019-05-01T15:33:01.083Z,6.73
2019-05-01T15:35:30.549Z,6.53
2019-05-01T15:38:00.245Z,5.93
2019-05-01T15:40:38.264Z,6.20
2019-05-01T15:43:25.410Z,6.53
2019-05-01T15:45:55.112Z,6.67
2019-05-01T15:48:24.778Z,6.47
2019-05-01T15:50:54.332Z,6.03
2019-05-01T15:53:23.992Z,7.03
2019-05-01T15:55:53.551Z,6.10
2019-05-01T15:58:23.193Z,5.60
2019-05-01T16:00:52.666Z,6.40
2019-05-01T16:03:22.432Z,6.97
2019-05-01T16:05:52.098Z,5.90
2019-05-01T16:08:22.088Z,9.33
2019-05-01T16:11:02.709Z,6.93
2019-05-01T16:13:33.857Z,6.30
2019-05-01T16:16:05.606Z,8.60
2019-05-01T16:18:36.056Z,6.63
2019-05-01T16:21:06.275Z,6.63
2019-05-01T16:23:36.570Z,6.40
2019-05-01T16:26:06.120Z,6.83
2019-05-01T16:28:36.043Z,8.17
2019-05-01T16:31:05.954Z,6.00
2019-05-01T16:33:35.565Z,7.23
2019-05-01T16:36:05.534Z,7.50
2019-05-01T16:38:50.747Z,7.60
2019-05-01T16:41:20.870Z,6.90
2019-05-01T16:43:50.685Z,8.03
2019-05-01T16:46:20.767Z,8.60
2019-05-01T16:48:50.792Z,7.73
2019-05-01T16:51:22.153Z,9.13
2019-05-01T16:53:52.294Z,10.17
2019-05-01T16:56:22.220Z,9.00
2019-05-01T16:58:52.275Z,11.40
2019-05-01T17:01:38.156Z,9.27
2019-05-01T17:04:12.709Z,8.27
2019-05-01T17:06:48.739Z,9.20
2019-05-01T17:09:37.450Z,8.10
2019-05-01T17:12:10.949Z,9.63
2019-05-01T17:14:40.120Z,9.23
2019-05-01T17:17:13.838Z,9.27
2019-05-01T17:19:43.754Z,9.53
2019-05-01T17:22:14.569Z,9.47
2019-05-01T17:24:45.951Z,9.90
2019-05-01T17:27:15.966Z,8.73
2019-05-01T17:29:45.813Z,9.63
2019-05-01T17:32:17.451Z,8.73
2019-05-01T17:34:47.903Z,8.80
2019-05-01T17:37:17.983Z,9.27
2019-05-01T17:39:48.333Z,9.77
2019-05-01T17:42:18.009Z,9.00
2019-05-01T17:44:48.653Z,10.07
2019-05-01T17:47:22.500Z,9.40
2019-05-01T17:49:50.153Z,10.03
2019-05-01T17:52:20.023Z,10.07
2019-05-01T17:54:49.542Z,9.77
2019-05-01T17:57:19.248Z,9.10
2019-05-01T17:59:50.839Z,10.03
2019-05-01T18:02:30.659Z,9.73
2019-05-01T18:05:17.052Z,9.90
2019-05-01T18:07:46.740Z,9.30
2019-05-01T18:10:16.474Z,9.13
2019-05-01T18:12:46.137Z,10.50
2019-05-01T18:15:15.828Z,10.50
2019-05-01T18:17:45.292Z,10.93
2019-05-01T18:20:14.950Z,9.90
2019-05-01T18:23:08.449Z,10.30
2019-05-01T18:25:51.460Z,8.73
2019-05-01T18:28:31.711Z,10.17
2019-05-01T18:31:01.548Z,9.90
2019-05-01T18:33:31.247Z,10.10
2019-05-01T18:36:00.955Z,10.27
2019-05-01T18:38:47.689Z,9.37
2019-05-01T18:41:20.583Z,9.00
2019-05-01T18:43:50.252Z,9.07
2019-05-01T18:46:19.998Z,9.30
2019-05-01T18:48:49.792Z,9.10
2019-05-01T18:51:19.603Z,8.87
2019-05-01T18:53:50.247Z,8.50
2019-05-01T18:56:19.905Z,10.23
2019-05-01T18:58:49.642Z,9.47
2019-05-01T19:01:19.302Z,9.30
2019-05-01T19:03:49.260Z,9.03
2019-05-01T19:06:19.011Z,11.17
2019-05-01T19:08:48.702Z,9.80
2019-05-01T19:11:18.478Z,10.23
2019-05-01T19:13:48.216Z,13.70
2019-05-01T19:16:17.902Z,11.73
2019-05-01T19:18:47.778Z,13.10
2019-05-01T19:21:19.117Z,17.07
2019-05-01T19:23:48.761Z,14.50
2019-05-01T19:26:19.072Z,16.37
2019-05-01T19:28:48.697Z,16.10
2019-05-01T19:31:21.251Z,17.70
2019-05-01T19:33:49.753Z,20.70
2019-05-01T19:36:19.407Z,17.00
2019-05-01T19:38:49.055Z,20.20
2019-05-01T19:41:18.627Z,17.17
2019-05-01T19:43:48.329Z,21.53
2019-05-01T19:46:18.035Z,22.70
2019-05-01T19:48:50.676Z,24.23
2019-05-01T19:51:23.606Z,22.83
2019-05-01T19:53:51.666Z,22.20
2019-05-01T19:56:22.851Z,27.90
2019-05-01T19:58:52.459Z,25.47
2019-05-01T20:01:22.146Z,27.87
2019-05-01T20:03:51.905Z,27.30
2019-05-01T20:06:21.570Z,26.17
2019-05-01T20:08:51.223Z,27.73
2019-05-01T20:11:20.880Z,26.13
2019-05-01T20:13:50.645Z,25.47
2019-05-01T20:16:21.465Z,28.77
2019-05-01T20:18:51.180Z,27.83
2019-05-01T20:21:21.051Z,34.60
2019-05-01T20:23:50.859Z,27.47
2019-05-01T20:26:21.120Z,29.60
2019-05-01T20:28:50.841Z,30.13
2019-05-01T20:31:22.781Z,33.67
2019-05-01T20:33:51.974Z,28.80
2019-05-01T20:36:21.769Z,28.97
2019-05-01T20:38:51.409Z,31.40
2019-05-01T20:41:21.166Z,28.43
2019-05-01T20:43:50.749Z,25.37
2019-05-01T20:46:21.341Z,27.57
2019-05-01T20:48:55.826Z,26.20
2019-05-01T20:51:23.120Z,26.53
2019-05-01T20:53:52.786Z,29.50
2019-05-01T20:56:40.373Z,30.10
2019-05-01T20:59:10.014Z,30.07
2019-05-01T21:01:39.671Z,26.57
2019-05-01T21:04:28.227Z,25.47
2019-05-01T21:07:21.111Z,22.90
2019-05-01T21:09:56.809Z,25.17
2019-05-01T21:12:22.324Z,27.60
2019-05-01T21:14:51.969Z,25.27
2019-05-01T21:17:21.527Z,24.33
2019-05-01T21:19:51.272Z,21.00
2019-05-01T21:22:20.863Z,22.20
2019-05-01T21:24:50.511Z,20.87
2019-05-01T21:27:20.192Z,25.00
2019-05-01T21:29:49.809Z,23.17
2019-05-01T21:32:26.160Z,23.33
2019-05-01T21:34:50.895Z,24.13
2019-05-01T21:37:20.534Z,24.17
2019-05-01T21:39:50.194Z,24.97
2019-05-01T21:42:19.722Z,24.23
2019-05-01T21:44:49.476Z,26.90
2019-05-01T21:47:19.105Z,26.83
2019-05-01T21:49:48.789Z,24.20
2019-05-01T21:52:23.033Z,24.57
2019-05-01T21:54:50.066Z,24.07
2019-05-01T21:57:21.160Z,25.37
2019-05-01T21:59:50.885Z,25.03
2019-05-01T22:02:20.552Z,25.93
2019-05-01T22:04:50.220Z,31.33
2019-05-01T22:07:23.800Z,29.63
2019-05-01T22:09:51.728Z,28.60
2019-05-01T22:12:21.331Z,31.60
2019-05-01T22:14:57.728Z,27.23
2019-05-01T22:17:45.118Z,28.77
2019-05-01T22:20:16.661Z,28.80
2019-05-01T22:22:53.878Z,28.50
2019-05-01T22:25:27.311Z,26.70
2019-05-01T22:28:19.898Z,31.73
2019-05-01T22:31:09.169Z,29.53
2019-05-01T22:33:39.391Z,29.93
2019-05-01T22:36:09.090Z,30.00
2019-05-01T22:38:38.749Z,33.93
2019-05-01T22:41:11.159Z,33.57
2019-05-01T22:43:40.847Z,29.83
2019-05-01T22:46:17.577Z,35.40
2019-05-01T22:48:47.213Z,31.67
2019-05-01T22:51:22.721Z,37.73
2019-05-01T22:53:55.208Z,33.73
2019-05-01T22:56:27.864Z,37.57
2019-05-01T22:58:57.491Z,39.50
2019-05-01T23:01:27.560Z,38.40
2019-05-01T23:04:07.561Z,38.97
2019-05-01T23:06:41.751Z,41.93
2019-05-01T23:09:08.932Z,42.70
2019-05-01T23:11:41.906Z,43.97
2019-05-01T23:14:11.748Z,46.90
2019-05-01T23:16:48.188Z,41.67
2019-05-01T23:19:18.009Z,45.07
2019-05-01T23:21:50.917Z,45.80
2019-05-01T23:24:19.579Z,45.50
2019-05-01T23:26:51.880Z,45.10
2019-05-01T23:29:21.559Z,47.67
2019-05-01T23:31:51.264Z,46.37
2019-05-01T23:34:25.764Z,45.93
2019-05-01T23:36:52.742Z,48.23
2019-05-01T23:39:22.393Z,53.50
2019-05-01T23:41:52.049Z,51.50
2019-05-01T23:44:21.910Z,55.73
2019-05-01T23:46:51.510Z,51.97
2019-05-01T23:49:21.179Z,51.07
2019-05-01T23:51:50.807Z,53.67
2019-05-01T23:54:20.213Z,58.07
2019-05-01T23:56:50.208Z,56.67
2019-05-01T23:59:20.430Z,55.47
